ADDS METAR Data INFO
IDs: Format: Raw Decoded Include TAF

Data at: 0102 UTC 24 Aug 2017

METAR for:KSPB (Scappoose Ind Airpar, OR, US)
Text:KSPB 240053Z AUTO 36009KT 10SM CLR 26/15 A2991 RMK AO2 WSHFT 0015 SLP129 T02610150
Temperature: 26.1°C ( 79°F)
Dewpoint: 15.0°C ( 59°F) [RH = 50%]
Pressure (altimeter):29.91 inches Hg (1013.0 mb) [Sea level pressure: 1012.9 mb]
Winds:from the N (360 degrees) at 10 MPH (9 knots; 4.6 m/s)
Visibility:10 or more sm (16+ km)
Ceiling:at least 12,000 feet AGL
Clouds:sky clear below 12,000 feet AGL
QC Flag:automated observation with no human augmentation